sensor_id;sensor_type;location;lat;lon;timestamp;pressure;altitude;pressure_sealevel;temperature;humidity
64158;BME280;50449;51.528;5.076;2023-05-12T00:01:17;101513.00;;;20.26;51.68
64158;BME280;50449;51.528;5.076;2023-05-12T00:03:44;101516.03;;;20.24;51.51
64158;BME280;50449;51.528;5.076;2023-05-12T00:06:09;101509.75;;;20.24;51.36
64158;BME280;50449;51.528;5.076;2023-05-12T00:08:35;101503.41;;;20.23;51.20
64158;BME280;50449;51.528;5.076;2023-05-12T00:11:01;101508.09;;;20.23;51.56
64158;BME280;50449;51.528;5.076;2023-05-12T00:13:27;101510.03;;;20.22;51.78
64158;BME280;50449;51.528;5.076;2023-05-12T00:15:53;101509.50;;;20.20;51.59
64158;BME280;50449;51.528;5.076;2023-05-12T00:18:21;101506.75;;;20.20;51.39
64158;BME280;50449;51.528;5.076;2023-05-12T00:20:46;101505.94;;;20.20;51.92
64158;BME280;50449;51.528;5.076;2023-05-12T00:23:12;101506.53;;;20.17;51.87
64158;BME280;50449;51.528;5.076;2023-05-12T00:25:38;101501.84;;;20.17;51.41
64158;BME280;50449;51.528;5.076;2023-05-12T00:28:04;101504.06;;;20.15;51.32
64158;BME280;50449;51.528;5.076;2023-05-12T00:30:29;101506.56;;;20.12;51.61
64158;BME280;50449;51.528;5.076;2023-05-12T00:32:55;101504.63;;;20.12;51.38
64158;BME280;50449;51.528;5.076;2023-05-12T00:35:20;101499.16;;;20.12;51.88
64158;BME280;50449;51.528;5.076;2023-05-12T00:37:45;101495.88;;;20.10;51.52
64158;BME280;50449;51.528;5.076;2023-05-12T00:40:11;101506.03;;;20.09;51.82
64158;BME280;50449;51.528;5.076;2023-05-12T00:42:36;101503.56;;;20.08;51.73
64158;BME280;50449;51.528;5.076;2023-05-12T00:45:02;101498.94;;;20.08;51.56
64158;BME280;50449;51.528;5.076;2023-05-12T00:47:29;101499.53;;;20.00;51.75
64158;BME280;50449;51.528;5.076;2023-05-12T00:49:54;101499.47;;;20.05;51.79
64158;BME280;50449;51.528;5.076;2023-05-12T00:52:20;101492.66;;;20.03;51.65
64158;BME280;50449;51.528;5.076;2023-05-12T00:54:47;101494.56;;;20.02;51.87
64158;BME280;50449;51.528;5.076;2023-05-12T00:57:13;101500.38;;;20.01;51.88
64158;BME280;50449;51.528;5.076;2023-05-12T00:59:38;101492.13;;;20.01;52.05
64158;BME280;50449;51.528;5.076;2023-05-12T01:02:04;101491.28;;;20.00;52.01
64158;BME280;50449;51.528;5.076;2023-05-12T01:04:31;101486.66;;;20.01;51.81
64158;BME280;50449;51.528;5.076;2023-05-12T01:07:02;101490.47;;;20.00;51.99
64158;BME280;50449;51.528;5.076;2023-05-12T01:09:30;101489.66;;;19.99;51.77
64158;BME280;50449;51.528;5.076;2023-05-12T01:11:55;101482.25;;;20.00;51.56
64158;BME280;50449;51.528;5.076;2023-05-12T01:14:20;101478.97;;;19.98;51.43
64158;BME280;50449;51.528;5.076;2023-05-12T01:16:53;101471.88;;;19.97;51.44
64158;BME280;50449;51.528;5.076;2023-05-12T01:19:51;101482.84;;;19.97;51.43
64158;BME280;50449;51.528;5.076;2023-05-12T01:22:17;101473.25;;;19.94;51.47
64158;BME280;50449;51.528;5.076;2023-05-12T01:25:10;101483.44;;;19.94;51.87
64158;BME280;50449;51.528;5.076;2023-05-12T01:27:37;101473.84;;;19.91;51.84
64158;BME280;50449;51.528;5.076;2023-05-12T01:30:04;101476.59;;;19.91;51.41
64158;BME280;50449;51.528;5.076;2023-05-12T01:32:30;101475.75;;;19.91;51.51
64158;BME280;50449;51.528;5.076;2023-05-12T01:34:56;101479.59;;;19.89;51.50
64158;BME280;50449;51.528;5.076;2023-05-12T01:37:21;101476.88;;;19.89;51.63
64158;BME280;50449;51.528;5.076;2023-05-12T01:39:50;101477.16;;;19.88;51.88
64158;BME280;50449;51.528;5.076;2023-05-12T01:42:16;101470.31;;;19.85;51.45
64158;BME280;50449;51.528;5.076;2023-05-12T01:44:41;101465.72;;;19.81;51.75
64158;BME280;50449;51.528;5.076;2023-05-12T01:47:07;101464.59;;;19.82;51.87
64158;BME280;50449;51.528;5.076;2023-05-12T01:49:34;101467.34;;;19.82;51.87
64158;BME280;50449;51.528;5.076;2023-05-12T01:51:59;101472.53;;;19.83;51.58
64158;BME280;50449;51.528;5.076;2023-05-12T01:54:25;101468.16;;;19.82;51.98
64158;BME280;50449;51.528;5.076;2023-05-12T01:56:50;101469.53;;;19.80;51.90
64158;BME280;50449;51.528;5.076;2023-05-12T01:59:15;101468.19;;;19.77;51.55
64158;BME280;50449;51.528;5.076;2023-05-12T02:01:41;101470.13;;;19.77;51.90
64158;BME280;50449;51.528;5.076;2023-05-12T02:04:06;101465.44;;;19.77;51.94
64158;BME280;50449;51.528;5.076;2023-05-12T02:06:33;101469.59;;;19.75;51.69
64158;BME280;50449;51.528;5.076;2023-05-12T02:08:58;101470.94;;;19.77;51.44
64158;BME280;50449;51.528;5.076;2023-05-12T02:11:23;101461.09;;;19.76;52.00
64158;BME280;50449;51.528;5.076;2023-05-12T02:13:49;101461.09;;;19.76;51.94
64158;BME280;50449;51.528;5.076;2023-05-12T02:16:15;101464.09;;;19.75;51.56
64158;BME280;50449;51.528;5.076;2023-05-12T02:18:41;101460.00;;;19.72;51.43
64158;BME280;50449;51.528;5.076;2023-05-12T02:21:06;101460.00;;;19.72;51.80
64158;BME280;50449;51.528;5.076;2023-05-12T02:23:31;101455.66;;;19.71;51.80
64158;BME280;50449;51.528;5.076;2023-05-12T02:25:57;101448.81;;;19.69;51.80
64158;BME280;50449;51.528;5.076;2023-05-12T02:28:22;101455.66;;;19.66;51.79
64158;BME280;50449;51.528;5.076;2023-05-12T02:30:49;101451.00;;;19.66;51.98
64158;BME280;50449;51.528;5.076;2023-05-12T02:33:18;101441.16;;;19.65;51.84
64158;BME280;50449;51.528;5.076;2023-05-12T02:35:44;101438.94;;;19.62;52.07
64158;BME280;50449;51.528;5.076;2023-05-12T02:38:10;101438.94;;;19.62;52.14
64158;BME280;50449;51.528;5.076;2023-05-12T02:40:35;101440.88;;;19.62;51.83
64158;BME280;50449;51.528;5.076;2023-05-12T02:43:01;101432.66;;;19.62;51.98
64158;BME280;50449;51.528;5.076;2023-05-12T02:45:26;101437.03;;;19.63;52.05
64158;BME280;50449;51.528;5.076;2023-05-12T02:47:52;101431.84;;;19.61;52.06
64158;BME280;50449;51.528;5.076;2023-05-12T02:50:17;101420.88;;;19.61;51.66
64158;BME280;50449;51.528;5.076;2023-05-12T02:52:43;101431.03;;;19.61;51.46
64158;BME280;50449;51.528;5.076;2023-05-12T02:55:08;101425.56;;;19.61;51.54
64158;BME280;50449;51.528;5.076;2023-05-12T02:57:34;101411.91;;;19.56;51.94
64158;BME280;50449;51.528;5.076;2023-05-12T03:00:00;101421.75;;;19.57;51.38
64158;BME280;50449;51.528;5.076;2023-05-12T03:02:26;101414.63;;;19.56;51.92
64158;BME280;50449;51.528;5.076;2023-05-12T03:04:51;101412.72;;;19.56;52.02
64158;BME280;50449;51.528;5.076;2023-05-12T03:07:17;101405.88;;;19.54;51.84
64158;BME280;50449;51.528;5.076;2023-05-12T03:09:42;101411.38;;;19.54;51.49
64158;BME280;50449;51.528;5.076;2023-05-12T03:12:08;101409.44;;;19.54;51.98
64158;BME280;50449;51.528;5.076;2023-05-12T03:14:33;101397.94;;;19.52;52.01
64158;BME280;50449;51.528;5.076;2023-05-12T03:16:59;101403.41;;;19.52;52.01
64158;BME280;50449;51.528;5.076;2023-05-12T03:19:24;101398.28;;;19.45;52.17
64158;BME280;50449;51.528;5.076;2023-05-12T03:21:52;101399.09;;;19.46;52.04
64158;BME280;50449;51.528;5.076;2023-05-12T03:24:17;101404.56;;;19.46;51.88
64158;BME280;50449;51.528;5.076;2023-05-12T03:26:43;101396.34;;;19.46;51.75
64158;BME280;50449;51.528;5.076;2023-05-12T03:29:08;101395.53;;;19.45;51.96
64158;BME280;50449;51.528;5.076;2023-05-12T03:31:33;101393.34;;;19.42;51.98
64158;BME280;50449;51.528;5.076;2023-05-12T03:33:59;101392.25;;;19.43;52.15
64158;BME280;50449;51.528;5.076;2023-05-12T03:36:24;101395.00;;;19.43;51.57
64158;BME280;50449;51.528;5.076;2023-05-12T03:38:50;101387.88;;;19.42;52.00
64158;BME280;50449;51.528;5.076;2023-05-12T03:41:16;101388.19;;;19.41;52.07
64158;BME280;50449;51.528;5.076;2023-05-12T03:43:41;101378.03;;;19.41;51.65
64158;BME280;50449;51.528;5.076;2023-05-12T03:46:06;101380.22;;;19.39;51.70
64158;BME280;50449;51.528;5.076;2023-05-12T03:48:32;101377.50;;;19.39;51.80
64158;BME280;50449;51.528;5.076;2023-05-12T03:50:57;101370.97;;;19.35;51.76
64158;BME280;50449;51.528;5.076;2023-05-12T03:53:23;101382.75;;;19.36;52.03
64158;BME280;50449;51.528;5.076;2023-05-12T03:55:48;101386.28;;;19.36;52.11
64158;BME280;50449;51.528;5.076;2023-05-12T03:58:13;101378.66;;;19.33;51.85
64158;BME280;50449;51.528;5.076;2023-05-12T04:00:39;101389.06;;;19.31;51.75
64158;BME280;50449;51.528;5.076;2023-05-12T04:03:04;101378.13;;;19.31;51.84
64158;BME280;50449;51.528;5.076;2023-05-12T04:05:30;101375.38;;;19.31;51.74
64158;BME280;50449;51.528;5.076;2023-05-12T04:07:55;101371.81;;;19.31;51.80
64158;BME280;50449;51.528;5.076;2023-05-12T04:10:21;101377.56;;;19.29;51.86
64158;BME280;50449;51.528;5.076;2023-05-12T04:12:46;101371.28;;;19.29;51.74
64158;BME280;50449;51.528;5.076;2023-05-12T04:15:12;101380.03;;;19.31;51.73
64158;BME280;50449;51.528;5.076;2023-05-12T04:17:39;101379.50;;;19.29;52.03
64158;BME280;50449;51.528;5.076;2023-05-12T04:20:05;101374.88;;;19.24;51.90
64158;BME280;50449;51.528;5.076;2023-05-12T04:22:31;101374.59;;;19.26;51.78
64158;BME280;50449;51.528;5.076;2023-05-12T04:24:56;101374.59;;;19.26;51.77
64158;BME280;50449;51.528;5.076;2023-05-12T04:27:22;101370.22;;;19.24;52.04
64158;BME280;50449;51.528;5.076;2023-05-12T04:29:47;101369.41;;;19.24;52.26
64158;BME280;50449;51.528;5.076;2023-05-12T04:32:13;101377.88;;;19.22;52.18
64158;BME280;50449;51.528;5.076;2023-05-12T04:34:38;101371.31;;;19.23;51.75
64158;BME280;50449;51.528;5.076;2023-05-12T04:37:04;101370.78;;;19.21;52.14
64158;BME280;50449;51.528;5.076;2023-05-12T04:39:29;101367.25;;;19.21;51.85
64158;BME280;50449;51.528;5.076;2023-05-12T04:41:55;101371.94;;;19.15;51.86
64158;BME280;50449;51.528;5.076;2023-05-12T04:44:20;101380.66;;;19.17;51.91
64158;BME280;50449;51.528;5.076;2023-05-12T04:46:46;101379.59;;;19.18;51.87
64158;BME280;50449;51.528;5.076;2023-05-12T04:49:12;101382.06;;;19.15;52.43
64158;BME280;50449;51.528;5.076;2023-05-12T04:51:37;101371.69;;;19.12;52.40
64158;BME280;50449;51.528;5.076;2023-05-12T04:54:08;101373.28;;;19.18;52.23
64158;BME280;50449;51.528;5.076;2023-05-12T04:56:33;101373.34;;;19.13;51.86
64158;BME280;50449;51.528;5.076;2023-05-12T04:58:59;101375.53;;;19.11;52.20
64158;BME280;50449;51.528;5.076;2023-05-12T05:01:24;101376.34;;;19.11;52.04
64158;BME280;50449;51.528;5.076;2023-05-12T05:03:50;101378.31;;;19.06;51.91
64158;BME280;50449;51.528;5.076;2023-05-12T05:06:15;101384.59;;;19.06;52.03
64158;BME280;50449;51.528;5.076;2023-05-12T05:08:41;101390.31;;;19.10;51.91
64158;BME280;50449;51.528;5.076;2023-05-12T05:11:06;101387.06;;;19.08;52.15
64158;BME280;50449;51.528;5.076;2023-05-12T05:13:32;101393.91;;;19.05;52.05
64158;BME280;50449;51.528;5.076;2023-05-12T05:15:57;101397.16;;;19.07;51.89
64158;BME280;50449;51.528;5.076;2023-05-12T05:18:22;101394.44;;;19.07;52.08
64158;BME280;50449;51.528;5.076;2023-05-12T05:20:48;101392.03;;;19.00;52.65
64158;BME280;50449;51.528;5.076;2023-05-12T05:23:13;101395.31;;;19.02;52.31
64158;BME280;50449;51.528;5.076;2023-05-12T05:25:39;101395.84;;;18.99;52.22
64158;BME280;50449;51.528;5.076;2023-05-12T05:28:04;101399.69;;;18.98;52.49
64158;BME280;50449;51.528;5.076;2023-05-12T05:30:30;101390.69;;;18.98;52.48
64158;BME280;50449;51.528;5.076;2023-05-12T05:32:55;101398.31;;;19.01;52.46
64158;BME280;50449;51.528;5.076;2023-05-12T05:35:21;101403.22;;;19.04;52.05
64158;BME280;50449;51.528;5.076;2023-05-12T05:37:46;101404.03;;;19.05;51.76
64158;BME280;50449;51.528;5.076;2023-05-12T05:40:11;101404.91;;;19.00;52.04
64158;BME280;50449;51.528;5.076;2023-05-12T05:42:37;101399.13;;;19.01;52.37
64158;BME280;50449;51.528;5.076;2023-05-12T05:45:03;101401.06;;;19.01;52.31
64158;BME280;50449;51.528;5.076;2023-05-12T05:47:28;101400.78;;;19.02;52.31
64158;BME280;50449;51.528;5.076;2023-05-12T05:49:55;101405.41;;;19.02;52.31
64158;BME280;50449;51.528;5.076;2023-05-12T05:52:20;101407.91;;;18.98;52.26
64158;BME280;50449;51.528;5.076;2023-05-12T05:54:46;101402.44;;;18.98;51.93
64158;BME280;50449;51.528;5.076;2023-05-12T05:57:12;101409.00;;;18.97;51.95
64158;BME280;50449;51.528;5.076;2023-05-12T05:59:37;101410.38;;;19.00;52.25
64158;BME280;50449;51.528;5.076;2023-05-12T06:02:03;101413.94;;;19.00;52.32
64158;BME280;50449;51.528;5.076;2023-05-12T06:04:28;101424.88;;;19.00;52.42
64158;BME280;50449;51.528;5.076;2023-05-12T06:06:54;101427.88;;;18.99;51.98
64158;BME280;50449;51.528;5.076;2023-05-12T06:09:19;101431.19;;;18.96;51.94
64158;BME280;50449;51.528;5.076;2023-05-12T06:11:45;101427.09;;;18.93;51.87
64158;BME280;50449;51.528;5.076;2023-05-12T06:14:10;101426.56;;;18.91;52.01
64158;BME280;50449;51.528;5.076;2023-05-12T06:16:36;101427.38;;;18.92;52.48
64158;BME280;50449;51.528;5.076;2023-05-12T06:19:01;101431.22;;;18.91;52.53
64158;BME280;50449;51.528;5.076;2023-05-12T06:21:27;101425.75;;;18.91;52.06
64158;BME280;50449;51.528;5.076;2023-05-12T06:23:52;101438.31;;;18.92;52.38
64158;BME280;50449;51.528;5.076;2023-05-12T06:26:20;101430.66;;;18.94;52.45
64158;BME280;50449;51.528;5.076;2023-05-12T06:28:46;101431.47;;;18.94;52.25
64158;BME280;50449;51.528;5.076;2023-05-12T06:31:11;101433.66;;;18.92;52.24
64158;BME280;50449;51.528;5.076;2023-05-12T06:33:37;101439.16;;;18.92;51.98
64158;BME280;50449;51.528;5.076;2023-05-12T06:36:02;101432.06;;;18.86;52.05
64158;BME280;50449;51.528;5.076;2023-05-12T06:38:27;101436.69;;;18.91;52.04
64158;BME280;50449;51.528;5.076;2023-05-12T06:40:53;101442.19;;;18.91;52.25
64158;BME280;50449;51.528;5.076;2023-05-12T06:43:18;101452.00;;;18.92;52.19
64158;BME280;50449;51.528;5.076;2023-05-12T06:45:44;101434.50;;;18.93;52.26
64158;BME280;50449;51.528;5.076;2023-05-12T06:48:09;101448.19;;;18.93;52.53
64158;BME280;50449;51.528;5.076;2023-05-12T06:50:34;101454.50;;;18.93;52.33
64158;BME280;50449;51.528;5.076;2023-05-12T06:53:00;101447.34;;;18.92;52.33
64158;BME280;50449;51.528;5.076;2023-05-12T06:55:26;101452.59;;;18.89;52.53
64158;BME280;50449;51.528;5.076;2023-05-12T06:57:51;101448.50;;;18.86;52.13
64158;BME280;50449;51.528;5.076;2023-05-12T07:00:24;101456.44;;;18.88;52.48
64158;BME280;50449;51.528;5.076;2023-05-12T07:02:49;101462.44;;;18.90;52.26
64158;BME280;50449;51.528;5.076;2023-05-12T07:05:15;101461.34;;;18.91;52.58
64158;BME280;50449;51.528;5.076;2023-05-12T07:07:40;101467.63;;;18.91;52.73
64158;BME280;50449;51.528;5.076;2023-05-12T07:10:07;101469.56;;;18.91;52.56
64158;BME280;50449;51.528;5.076;2023-05-12T07:12:32;101469.25;;;18.92;52.50
64158;BME280;50449;51.528;5.076;2023-05-12T07:14:58;101472.00;;;18.92;52.60
64158;BME280;50449;51.528;5.076;2023-05-12T07:17:23;101473.09;;;18.91;53.00
64158;BME280;50449;51.528;5.076;2023-05-12T07:19:49;101471.72;;;18.94;52.98
64158;BME280;50449;51.528;5.076;2023-05-12T07:22:14;101479.94;;;18.94;52.80
64158;BME280;50449;51.528;5.076;2023-05-12T07:24:40;101476.38;;;18.93;53.31
64158;BME280;50449;51.528;5.076;2023-05-12T07:27:06;101474.72;;;18.92;52.99
64158;BME280;50449;51.528;5.076;2023-05-12T07:29:32;101464.88;;;18.91;52.89
64158;BME280;50449;51.528;5.076;2023-05-12T07:31:58;101482.69;;;18.94;53.57
64158;BME280;50449;51.528;5.076;2023-05-12T07:34:24;101482.94;;;18.92;53.61
64158;BME280;50449;51.528;5.076;2023-05-12T07:36:50;101479.97;;;18.89;53.65
64158;BME280;50449;51.528;5.076;2023-05-12T07:39:15;101480.22;;;18.87;54.04
64158;BME280;50449;51.528;5.076;2023-05-12T07:41:43;101487.34;;;18.93;54.15
64158;BME280;50449;51.528;5.076;2023-05-12T07:44:09;101485.13;;;18.95;53.89
64158;BME280;50449;51.528;5.076;2023-05-12T07:46:34;101479.66;;;19.00;53.83
64158;BME280;50449;51.528;5.076;2023-05-12T07:49:00;101479.66;;;19.00;54.39
64158;BME280;50449;51.528;5.076;2023-05-12T07:51:26;101480.44;;;19.01;54.03
64158;BME280;50449;51.528;5.076;2023-05-12T07:53:51;101486.19;;;19.05;53.93
64158;BME280;50449;51.528;5.076;2023-05-12T07:56:19;101495.22;;;19.05;54.22
64158;BME280;50449;51.528;5.076;2023-05-12T07:58:46;101491.38;;;19.06;54.01
64158;BME280;50449;51.528;5.076;2023-05-12T08:01:11;101494.94;;;19.07;54.16
64158;BME280;50449;51.528;5.076;2023-05-12T08:03:37;101494.94;;;19.07;53.72
64158;BME280;50449;51.528;5.076;2023-05-12T08:06:03;101490.56;;;19.06;54.27
64158;BME280;50449;51.528;5.076;2023-05-12T08:08:29;101496.59;;;19.08;54.24
64158;BME280;50449;51.528;5.076;2023-05-12T08:10:55;101497.94;;;19.10;54.14
64158;BME280;50449;51.528;5.076;2023-05-12T08:13:21;101505.03;;;19.11;54.22
64158;BME280;50449;51.528;5.076;2023-05-12T08:15:48;101515.19;;;19.11;53.93
64158;BME280;50449;51.528;5.076;2023-05-12T08:18:14;101506.44;;;19.09;54.25
64158;BME280;50449;51.528;5.076;2023-05-12T08:20:40;101510.75;;;19.15;54.20
64158;BME280;50449;51.528;5.076;2023-05-12T08:23:06;101505.56;;;19.18;54.02
64158;BME280;50449;51.528;5.076;2023-05-12T08:25:31;101508.31;;;19.18;54.01
64158;BME280;50449;51.528;5.076;2023-05-12T08:27:59;101509.94;;;19.19;53.82
64158;BME280;50449;51.528;5.076;2023-05-12T08:30:25;101514.03;;;19.22;53.85
64158;BME280;50449;51.528;5.076;2023-05-12T08:32:52;101511.81;;;19.24;53.98
64158;BME280;50449;51.528;5.076;2023-05-12T08:35:17;101511.25;;;19.27;54.09
64158;BME280;50449;51.528;5.076;2023-05-12T08:37:43;101509.06;;;19.29;54.30
64158;BME280;50449;51.528;5.076;2023-05-12T08:40:14;101520.81;;;19.30;53.87
64158;BME280;50449;51.528;5.076;2023-05-12T08:43:22;101523.53;;;19.35;54.12
64158;BME280;50449;51.528;5.076;2023-05-12T08:45:49;101514.22;;;19.36;53.98
64158;BME280;50449;51.528;5.076;2023-05-12T08:48:16;101520.25;;;19.38;54.25
64158;BME280;50449;51.528;5.076;2023-05-12T08:50:43;101537.19;;;19.40;53.61
64158;BME280;50449;51.528;5.076;2023-05-12T08:53:10;101541.03;;;19.44;53.78
64158;BME280;50449;51.528;5.076;2023-05-12T08:55:38;101543.72;;;19.49;53.91
64158;BME280;50449;51.528;5.076;2023-05-12T08:58:06;101537.13;;;19.50;53.99
64158;BME280;50449;51.528;5.076;2023-05-12T09:00:33;101544.28;;;19.51;53.89
64158;BME280;50449;51.528;5.076;2023-05-12T09:02:59;101535.22;;;19.56;53.63
64158;BME280;50449;51.528;5.076;2023-05-12T09:05:28;101538.72;;;19.61;53.41
64158;BME280;50449;51.528;5.076;2023-05-12T09:07:55;101541.72;;;19.65;53.99
64158;BME280;50449;51.528;5.076;2023-05-12T09:10:21;101533.78;;;19.69;53.37
64158;BME280;50449;51.528;5.076;2023-05-12T09:12:50;101539.81;;;19.71;53.50
64158;BME280;50449;51.528;5.076;2023-05-12T09:15:24;101541.16;;;19.73;53.47
64158;BME280;50449;51.528;5.076;2023-05-12T09:17:51;101544.94;;;19.77;53.45
64158;BME280;50449;51.528;5.076;2023-05-12T09:20:16;101540.28;;;19.78;53.51
64158;BME280;50449;51.528;5.076;2023-05-12T09:22:42;101540.25;;;19.83;53.95
64158;BME280;50449;51.528;5.076;2023-05-12T09:25:18;101545.44;;;19.84;53.43
64158;BME280;50449;51.528;5.076;2023-05-12T09:27:48;101543.25;;;19.86;53.82
64158;BME280;50449;51.528;5.076;2023-05-12T09:30:14;101543.47;;;19.90;53.67
64158;BME280;50449;51.528;5.076;2023-05-12T09:32:40;101550.31;;;19.93;53.39
64158;BME280;50449;51.528;5.076;2023-05-12T09:35:10;101542.91;;;19.93;53.92
64158;BME280;50449;51.528;5.076;2023-05-12T09:37:36;101540.97;;;19.99;53.28
64158;BME280;50449;51.528;5.076;2023-05-12T09:40:03;101543.97;;;19.97;53.85
64158;BME280;50449;51.528;5.076;2023-05-12T09:42:31;101543.94;;;20.02;53.79
64158;BME280;50449;51.528;5.076;2023-05-12T09:45:04;101553.50;;;20.05;53.62
64158;BME280;50449;51.528;5.076;2023-05-12T09:47:35;101546.94;;;20.06;53.42
64158;BME280;50449;51.528;5.076;2023-05-12T09:50:02;101558.41;;;20.08;53.37
64158;BME280;50449;51.528;5.076;2023-05-12T09:52:29;101552.34;;;20.16;53.11
64158;BME280;50449;51.528;5.076;2023-05-12T09:54:54;101556.13;;;20.20;53.44
64158;BME280;50449;51.528;5.076;2023-05-12T09:57:20;101548.16;;;20.24;52.85
64158;BME280;50449;51.528;5.076;2023-05-12T09:59:48;101547.28;;;20.28;53.08
64158;BME280;50449;51.528;5.076;2023-05-12T10:02:14;101556.03;;;20.30;53.39
64158;BME280;50449;51.528;5.076;2023-05-12T10:04:49;101555.16;;;20.35;53.10
64158;BME280;50449;51.528;5.076;2023-05-12T10:07:15;101551.84;;;20.38;52.96
64158;BME280;50449;51.528;5.076;2023-05-12T10:09:43;101553.72;;;20.43;52.94
64158;BME280;50449;51.528;5.076;2023-05-12T10:12:09;101548.25;;;20.43;52.86
64158;BME280;50449;51.528;5.076;2023-05-12T10:14:35;101558.13;;;20.44;52.77
64158;BME280;50449;51.528;5.076;2023-05-12T10:17:01;101555.03;;;20.50;52.74
64158;BME280;50449;51.528;5.076;2023-05-12T10:19:29;101545.94;;;20.55;52.92
64158;BME280;50449;51.528;5.076;2023-05-12T10:21:55;101561.84;;;20.58;53.07
64158;BME280;50449;51.528;5.076;2023-05-12T10:24:24;101565.41;;;20.53;53.36
64158;BME280;50449;51.528;5.076;2023-05-12T10:26:53;101555.53;;;20.58;53.25
64158;BME280;50449;51.528;5.076;2023-05-12T10:29:21;101555.75;;;20.61;53.52
64158;BME280;50449;51.528;5.076;2023-05-12T10:31:57;101559.81;;;20.69;53.14
64158;BME280;50449;51.528;5.076;2023-05-12T10:34:36;101555.91;;;20.75;53.03
64158;BME280;50449;51.528;5.076;2023-05-12T10:37:06;101547.59;;;20.80;53.19
64158;BME280;50449;51.528;5.076;2023-05-12T10:39:35;101562.09;;;20.86;52.89
64158;BME280;50449;51.528;5.076;2023-05-12T10:42:06;101560.47;;;20.85;52.83
64158;BME280;50449;51.528;5.076;2023-05-12T10:44:33;101554.59;;;20.91;52.53
64158;BME280;50449;51.528;5.076;2023-05-12T10:46:59;101559.00;;;20.92;52.52
64158;BME280;50449;51.528;5.076;2023-05-12T10:49:39;101562.81;;;20.96;52.29
64158;BME280;50449;51.528;5.076;2023-05-12T10:52:05;101559.47;;;21.00;52.95
64158;BME280;50449;51.528;5.076;2023-05-12T10:54:38;101561.84;;;21.06;52.21
64158;BME280;50449;51.528;5.076;2023-05-12T10:57:14;101566.78;;;21.09;52.47
64158;BME280;50449;51.528;5.076;2023-05-12T10:59:51;101565.59;;;21.15;51.86
64158;BME280;50449;51.528;5.076;2023-05-12T11:02:18;101565.31;;;21.17;51.85
64158;BME280;50449;51.528;5.076;2023-05-12T11:04:51;101559.50;;;21.18;51.59
64158;BME280;50449;51.528;5.076;2023-05-12T11:07:22;101559.50;;;21.18;52.08
64158;BME280;50449;51.528;5.076;2023-05-12T11:09:48;101558.69;;;21.18;52.00
64158;BME280;50449;51.528;5.076;2023-05-12T11:12:14;101564.31;;;21.27;51.85
64158;BME280;50449;51.528;5.076;2023-05-12T11:14:42;101568.88;;;21.36;51.51
64158;BME280;50449;51.528;5.076;2023-05-12T11:17:08;101574.34;;;21.42;51.50
64158;BME280;50449;51.528;5.076;2023-05-12T11:19:34;101579.47;;;21.48;51.67
64158;BME280;50449;51.528;5.076;2023-05-12T11:22:09;101584.09;;;21.53;51.10
64158;BME280;50449;51.528;5.076;2023-05-12T11:24:36;101585.44;;;21.55;51.45
64158;BME280;50449;51.528;5.076;2023-05-12T11:27:03;101584.03;;;21.58;51.30
64158;BME280;50449;51.528;5.076;2023-05-12T11:29:29;101577.91;;;21.61;51.34
64158;BME280;50449;51.528;5.076;2023-05-12T11:31:55;101589.66;;;21.67;51.05
64158;BME280;50449;51.528;5.076;2023-05-12T11:34:22;101571.47;;;21.71;50.95
64158;BME280;50449;51.528;5.076;2023-05-12T11:36:50;101589.22;;;21.78;50.77
64158;BME280;50449;51.528;5.076;2023-05-12T11:39:20;101590.47;;;21.86;50.92
64158;BME280;50449;51.528;5.076;2023-05-12T11:41:46;101596.19;;;21.90;51.03
64158;BME280;50449;51.528;5.076;2023-05-12T11:46:39;101601.56;;;21.81;51.38
64158;BME280;50449;51.528;5.076;2023-05-12T11:49:09;101607.13;;;21.76;51.18
64158;BME280;50449;51.528;5.076;2023-05-12T11:51:40;101609.59;;;21.77;51.32
64158;BME280;50449;51.528;5.076;2023-05-12T11:54:06;101609.00;;;21.80;51.24
64158;BME280;50449;51.528;5.076;2023-05-12T11:56:31;101605.13;;;21.81;51.44
64158;BME280;50449;51.528;5.076;2023-05-12T11:58:57;101612.47;;;21.86;51.07
64158;BME280;50449;51.528;5.076;2023-05-12T12:01:23;101619.84;;;21.91;51.10
64158;BME280;50449;51.528;5.076;2023-05-12T12:03:51;101620.13;;;21.89;51.07
64158;BME280;50449;51.528;5.076;2023-05-12T12:06:18;101624.75;;;21.94;51.50
64158;BME280;50449;51.528;5.076;2023-05-12T12:08:56;101624.97;;;21.97;51.30
64158;BME280;50449;51.528;5.076;2023-05-12T12:11:24;101625.78;;;21.98;51.02
64158;BME280;50449;51.528;5.076;2023-05-12T12:13:55;101618.56;;;22.02;51.29
64158;BME280;50449;51.528;5.076;2023-05-12T12:16:30;101625.72;;;22.03;51.71
64158;BME280;50449;51.528;5.076;2023-05-12T12:18:56;101634.69;;;22.09;51.37
64158;BME280;50449;51.528;5.076;2023-05-12T12:21:23;101619.81;;;22.10;50.88
64158;BME280;50449;51.528;5.076;2023-05-12T12:23:49;101628.31;;;22.13;50.83
64158;BME280;50449;51.528;5.076;2023-05-12T12:26:15;101630.16;;;22.18;50.81
64158;BME280;50449;51.528;5.076;2023-05-12T12:28:50;101624.91;;;22.21;50.83
64158;BME280;50449;51.528;5.076;2023-05-12T12:31:15;101643.88;;;22.23;51.04
64158;BME280;50449;51.528;5.076;2023-05-12T12:33:41;101644.88;;;22.27;50.90
64158;BME280;50449;51.528;5.076;2023-05-12T12:36:07;101646.53;;;22.28;50.61
64158;BME280;50449;51.528;5.076;2023-05-12T12:38:32;101640.44;;;22.31;50.99
64158;BME280;50449;51.528;5.076;2023-05-12T12:40:58;101649.75;;;22.35;50.69
64158;BME280;50449;51.528;5.076;2023-05-12T12:43:25;101651.88;;;22.38;50.37
64158;BME280;50449;51.528;5.076;2023-05-12T12:45:50;101655.97;;;22.41;50.13
64158;BME280;50449;51.528;5.076;2023-05-12T12:48:16;101652.91;;;22.42;50.20
64158;BME280;50449;51.528;5.076;2023-05-12T12:50:42;101657.50;;;22.47;50.33